map of GYE home
GYE - Airport
Location
City:  Guayaquil, Guayas, Ecuador
Name:José Joaquín de Olmdeo International Airport
Old (Alt.):Simón Bolívar International Airport
ICAO:SEGU
IATA:GYE

Details
Type:Airport (Aerodrome, Airfield)
Use:Public/Civil, International (customs port of entry)
Latitude:2°09'27"S (-2.157418)
Longitude:79°53'01"W (-79.883557)
Datum:WGS 1984
Elevation:19 ft (6 m)
Variation:2.14°W (WMM2015 magnetic declination)
-0.16° annual change
Runways:1
Longest:9154 × 151 ft (2790 × 46 m), paved

Time
Time Zone:UTC-5
Local Time:

Weather
METAR:SEGU 180400Z 22010KT CAVOK 22/18 Q1013 NOSIG RMK A2992

Related Locations
Nearby:
Farthest:DTB: 12372 mi / 19911 km
Siborong-Borong (Tarutung) [Silangit Airport], SU, ID

Find:

   beyond  
but within

Other Information
Maps:
NOTAMs:
Links:
Sources:

  
flag of Ecuador
flag of Guayas
  

Airport Diagram

Airport diagram for GYE

Larger airport diagram (OBSOLETE) from NGA

Sectional Chart

Flight Planning
at skyvector.com

Satellite Image

Google Maps Satellite view

 

Copyright © 2004-2017 Karl L. Swartz. All rights reserved.
The Great Circle Mapper name and logo are trademarks of the Great Circle Mapper.
All other trademarks mentioned herein belong to their respective owners.
Please see credits for attibutions and further copyright information.

  Follow gcmap on Facebook Follow gcmap on Twitter Follow gcmap on Google+ GCmap on LinkedIn

hCard Microformat

Geo Microformat